Time;durP1;ratioP1;P1;durP2;ratioP2;P2;SDS_P1;SDS_P2;PMS_P1;PMS_P2;Temp;Humidity;BMP_temperature;BMP_pressure;BME280_temperature;BME280_humidity;BME280_pressure;Samples;Min_cycle;Max_cycle;Signal;HPM_P1;HPM_P2
2020/12/07 00:00:18;;;;;;;17.52;9.05;;;-2.80;64.20;;;;;;5074763;28;20029;-42
2020/12/07 00:02:46;;;;;;;18.25;9.02;;;-2.80;64.20;;;;;;5079816;28;20032;-42
2020/12/07 00:05:12;;;;;;;19.35;9.65;;;-2.80;64.20;;;;;;5090949;28;20025;-38
2020/12/07 00:07:38;;;;;;;20.38;10.27;;;-2.80;64.20;;;;;;5075936;28;20028;-42
2020/12/07 00:10:05;;;;;;;18.08;9.52;;;-2.80;64.10;;;;;;5077416;28;20213;-41
2020/12/07 00:12:32;;;;;;;20.73;9.48;;;-2.90;64.10;;;;;;5076564;28;20123;-42
2020/12/07 00:15:00;;;;;;;18.13;9.98;;;-2.90;64.00;;;;;;5075908;28;20029;-41
2020/12/07 00:17:27;;;;;;;23.13;10.18;;;-2.90;64.00;;;;;;5076752;28;20126;-41
2020/12/07 00:19:54;;;;;;;23.05;11.40;;;-2.90;64.10;;;;;;5076967;28;20040;-41
2020/12/07 00:22:26;;;;;;;20.52;9.50;;;-2.90;64.10;;;;;;5077821;28;20182;-38
2020/12/07 00:24:52;;;;;;;20.55;9.55;;;-2.90;64.10;;;;;;5075441;28;20077;-41
2020/12/07 00:27:26;;;;;;;29.85;9.65;;;-2.90;64.00;;;;;;5076719;28;20453;-41
2020/12/07 00:29:52;;;;;;;20.85;10.15;;;-2.90;64.00;;;;;;5076982;28;20430;-41
2020/12/07 00:32:19;;;;;;;21.15;10.40;;;-2.90;64.00;;;;;;5077194;28;20060;-41
2020/12/07 00:34:45;;;;;;;17.73;9.68;;;-3.00;64.00;;;;;;5076782;28;20036;-41
2020/12/07 00:37:11;;;;;;;20.50;9.85;;;-3.00;64.10;;;;;;5076609;28;20407;-38
2020/12/07 00:39:39;;;;;;;25.83;10.73;;;-3.00;64.00;;;;;;5077802;28;20181;-41
2020/12/07 00:42:05;;;;;;;20.85;10.15;;;-3.00;63.90;;;;;;5077170;28;20039;-41
2020/12/07 00:44:31;;;;;;;17.08;8.98;;;-3.00;63.90;;;;;;5077473;28;20032;-42
2020/12/07 00:46:57;;;;;;;22.85;10.07;;;-3.00;64.00;;;;;;5076771;28;20028;-42
2020/12/07 00:49:23;;;;;;;19.65;10.10;;;-3.00;64.00;;;;;;5076688;28;20017;-39
2020/12/07 00:51:49;;;;;;;21.73;9.68;;;-3.00;64.00;;;;;;5076631;28;20406;-39
2020/12/07 00:54:16;;;;;;;21.92;10.18;;;-3.00;64.10;;;;;;5076717;28;20030;-39
2020/12/07 00:56:41;;;;;;;21.73;9.52;;;-3.10;64.10;;;;;;5076816;28;20463;-42
2020/12/07 00:59:11;;;;;;;22.05;8.82;;;-3.00;64.40;;;;;;5077485;28;20029;-40
2020/12/07 01:01:38;;;;;;;21.15;9.50;;;-3.00;64.40;;;;;;5077048;28;20131;-38
2020/12/07 01:04:04;;;;;;;26.55;10.80;;;-3.00;64.40;;;;;;5076886;28;20048;-38
2020/12/07 01:06:34;;;;;;;23.60;9.95;;;-3.00;64.40;;;;;;5076727;28;20028;-40
2020/12/07 01:08:59;;;;;;;21.63;10.00;;;-3.00;64.40;;;;;;5077998;28;20036;-41
2020/12/07 01:11:25;;;;;;;19.70;10.00;;;-3.00;64.20;;;;;;5077600;28;20069;-42
2020/12/07 01:13:51;;;;;;;20.40;9.70;;;-3.00;64.40;;;;;;5080419;28;20324;-41
2020/12/07 01:16:24;;;;;;;18.38;9.07;;;-3.00;64.40;;;;;;5079606;28;20107;-40
2020/12/07 01:18:50;;;;;;;18.33;9.07;;;-3.00;64.40;;;;;;5080431;28;20024;-39
2020/12/07 01:21:17;;;;;;;22.00;9.00;;;-3.00;64.40;;;;;;5080450;28;20028;-42
2020/12/07 01:23:47;;;;;;;17.48;9.15;;;-3.00;64.40;;;;;;5081608;28;20058;-39
2020/12/07 01:26:14;;;;;;;18.48;8.75;;;-2.90;64.70;;;;;;5080148;28;20031;-38
2020/12/07 01:28:43;;;;;;;23.70;10.23;;;-2.90;64.30;;;;;;5079723;28;20024;-39
2020/12/07 01:31:09;;;;;;;20.65;9.52;;;-2.90;64.30;;;;;;5081155;28;20317;-39
2020/12/07 01:33:34;;;;;;;19.20;9.70;;;-2.90;64.20;;;;;;5080653;28;20024;-41
2020/12/07 01:36:00;;;;;;;19.35;9.30;;;-2.90;64.10;;;;;;5080354;28;20054;-41
2020/12/07 01:38:26;;;;;;;17.30;8.73;;;-2.90;64.20;;;;;;5079705;28;20404;-41
2020/12/07 01:40:52;;;;;;;23.38;9.73;;;-3.00;64.10;;;;;;5081043;28;20068;-41
2020/12/07 01:43:18;;;;;;;19.17;9.80;;;-3.00;64.10;;;;;;5080456;28;20377;-42
2020/12/07 01:45:45;;;;;;;19.95;9.40;;;-3.00;64.20;;;;;;5080333;28;20160;-41
2020/12/07 01:48:11;;;;;;;16.90;8.70;;;-3.00;64.20;;;;;;5080736;28;20027;-39
2020/12/07 01:50:40;;;;;;;15.65;8.95;;;-3.00;64.20;;;;;;5080926;28;20461;-41
2020/12/07 01:53:06;;;;;;;16.90;9.15;;;-3.00;64.10;;;;;;5079572;28;20020;-42
2020/12/07 01:55:32;;;;;;;20.33;9.40;;;-3.00;63.90;;;;;;5079136;28;20029;-41
2020/12/07 01:57:58;;;;;;;16.80;9.27;;;-3.00;63.80;;;;;;5079353;28;20017;-41
2020/12/07 02:00:24;;;;;;;21.42;9.32;;;-3.10;63.90;;;;;;5080423;28;20075;-42
2020/12/07 02:02:51;;;;;;;20.63;9.25;;;-3.10;63.90;;;;;;5079876;28;20063;-39
2020/12/07 02:05:19;;;;;;;17.98;8.93;;;-3.10;63.70;;;;;;5079413;28;20032;-38
2020/12/07 02:07:45;;;;;;;19.73;8.98;;;-3.10;63.70;;;;;;5080495;28;20024;-41
2020/12/07 02:10:11;;;;;;;20.65;10.05;;;-3.10;63.60;;;;;;5080570;28;20028;-38
2020/12/07 02:12:37;;;;;;;18.17;8.90;;;-3.20;63.70;;;;;;5079796;28;20036;-38
2020/12/07 02:15:03;;;;;;;24.33;9.85;;;-3.20;63.70;;;;;;5078278;28;20035;-39
2020/12/07 02:17:29;;;;;;;21.52;8.68;;;-3.20;63.80;;;;;;5078807;28;20338;-40
2020/12/07 02:19:55;;;;;;;21.27;9.95;;;-3.30;63.70;;;;;;5077762;28;20047;-38
2020/12/07 02:22:21;;;;;;;19.38;9.48;;;-3.30;63.80;;;;;;5079791;28;20029;-40
2020/12/07 02:24:46;;;;;;;20.80;9.45;;;-3.30;63.70;;;;;;5079111;28;20039;-42
2020/12/07 02:27:12;;;;;;;18.73;8.85;;;-3.40;63.80;;;;;;5080258;28;20024;-42
2020/12/07 02:29:38;;;;;;;17.25;8.93;;;-3.40;63.90;;;;;;5079287;28;20028;-38
2020/12/07 02:32:16;;;;;;;22.60;9.45;;;-3.40;63.90;;;;;;5077965;28;20035;-42
2020/12/07 02:34:43;;;;;;;20.15;9.35;;;-3.40;63.80;;;;;;5078860;28;20031;-38
2020/12/07 02:37:09;;;;;;;20.42;9.13;;;-3.40;63.50;;;;;;5074973;28;20137;-39
2020/12/07 02:39:36;;;;;;;24.00;10.18;;;-3.40;63.50;;;;;;5071621;28;20056;-41
2020/12/07 02:42:05;;;;;;;24.90;9.75;;;-3.50;63.60;;;;;;5079830;28;20023;-39
2020/12/07 02:44:32;;;;;;;24.83;10.02;;;-3.50;63.80;;;;;;5078869;28;20372;-41
2020/12/07 02:47:00;;;;;;;23.42;10.23;;;-3.50;63.80;;;;;;5078269;28;20020;-42
2020/12/07 02:49:27;;;;;;;27.90;10.30;;;-3.50;63.80;;;;;;5078573;28;20036;-41
2020/12/07 02:51:53;;;;;;;20.48;10.65;;;-3.50;63.90;;;;;;5078177;28;20103;-41
2020/12/07 02:54:19;;;;;;;17.25;8.35;;;-3.50;64.00;;;;;;5078182;28;20391;-41
2020/12/07 02:56:45;;;;;;;24.75;10.73;;;-3.50;63.80;;;;;;5078131;28;20043;-41
2020/12/07 02:59:10;;;;;;;19.20;9.13;;;-3.50;63.80;;;;;;5078247;28;20039;-41
2020/12/07 03:01:36;;;;;;;21.80;9.85;;;-3.50;63.80;;;;;;5078273;28;20032;-41
2020/12/07 03:04:02;;;;;;;21.45;9.63;;;-3.50;63.60;;;;;;5078142;28;20024;-41
2020/12/07 03:06:28;;;;;;;18.02;8.75;;;-3.60;63.70;;;;;;5077858;28;20342;-42
2020/12/07 03:08:54;;;;;;;20.13;8.82;;;-3.50;63.90;;;;;;5077814;28;20112;-41
2020/12/07 03:11:21;;;;;;;18.45;9.10;;;-3.50;63.90;;;;;;5070555;28;20040;-41
2020/12/07 03:13:47;;;;;;;19.80;9.48;;;-3.50;63.90;;;;;;5063691;28;20028;-42
2020/12/07 03:16:14;;;;;;;21.67;10.05;;;-3.50;63.80;;;;;;5058350;28;20333;-38
2020/12/07 03:18:39;;;;;;;18.08;9.38;;;-3.50;63.80;;;;;;5056353;28;20025;-39
2020/12/07 03:21:06;;;;;;;19.05;8.40;;;-3.60;63.70;;;;;;5058411;28;20037;-38
2020/12/07 03:23:31;;;;;;;20.60;9.45;;;-3.60;63.80;;;;;;5056807;28;20017;-42
2020/12/07 03:25:57;;;;;;;18.60;8.85;;;-3.60;63.90;;;;;;5058822;28;20029;-38
2020/12/07 03:28:23;;;;;;;19.50;9.25;;;-3.60;63.60;;;;;;5067457;28;20078;-38
2020/12/07 03:30:49;;;;;;;15.55;9.05;;;-3.60;63.60;;;;;;5077339;28;20052;-44
2020/12/07 03:33:15;;;;;;;20.15;9.68;;;-3.60;63.60;;;;;;5073392;28;20037;-40
2020/12/07 03:35:41;;;;;;;16.77;8.60;;;-3.60;63.50;;;;;;5071839;28;20115;-38
2020/12/07 03:38:07;;;;;;;19.45;9.35;;;-3.60;63.60;;;;;;5076116;28;20091;-41
2020/12/07 03:40:35;;;;;;;22.15;9.80;;;-3.60;63.80;;;;;;5079616;28;20085;-38
2020/12/07 03:43:02;;;;;;;18.77;9.57;;;-3.60;63.80;;;;;;5077321;28;20020;-41
2020/12/07 03:45:28;;;;;;;21.23;9.95;;;-3.70;63.80;;;;;;5078092;28;20036;-41
2020/12/07 03:47:54;;;;;;;17.67;9.73;;;-3.70;63.80;;;;;;5078337;28;20032;-41
2020/12/07 03:50:20;;;;;;;17.13;8.63;;;-3.70;63.80;;;;;;5076175;28;20033;-41
2020/12/07 03:52:45;;;;;;;22.70;10.38;;;-3.70;63.70;;;;;;5071668;28;20346;-38
2020/12/07 03:55:11;;;;;;;18.02;9.23;;;-3.80;63.70;;;;;;5076188;28;20407;-38
2020/12/07 03:57:37;;;;;;;16.98;9.35;;;-3.80;63.90;;;;;;5075945;28;20032;-41
2020/12/07 04:00:06;;;;;;;17.52;9.38;;;-3.80;64.00;;;;;;5076719;28;20040;-41
2020/12/07 04:02:33;;;;;;;18.42;9.30;;;-3.80;63.80;;;;;;5076760;28;20403;-38
2020/12/07 04:05:10;;;;;;;17.10;8.13;;;-3.80;63.90;;;;;;5076450;28;20123;-41
2020/12/07 04:07:37;;;;;;;18.33;9.65;;;-3.80;63.90;;;;;;5076118;28;20024;-41
2020/12/07 04:10:04;;;;;;;20.45;9.23;;;-3.80;63.80;;;;;;5074961;28;20056;-41
2020/12/07 04:12:29;;;;;;;20.90;9.18;;;-3.80;63.60;;;;;;5075602;28;20100;-41
2020/12/07 04:14:55;;;;;;;19.05;9.38;;;-3.80;63.60;;;;;;5075775;28;20062;-41
2020/12/07 04:17:21;;;;;;;19.38;9.30;;;-3.90;63.70;;;;;;5077236;28;20334;-38
2020/12/07 04:19:50;;;;;;;17.38;8.20;;;-3.90;63.70;;;;;;5074518;28;20429;-38
2020/12/07 04:22:16;;;;;;;18.90;8.27;;;-3.90;63.80;;;;;;5072887;28;20094;-38
2020/12/07 04:24:41;;;;;;;22.52;9.80;;;-3.90;63.90;;;;;;5075699;28;20437;-38
2020/12/07 04:27:07;;;;;;;15.90;8.00;;;-3.90;63.90;;;;;;5076099;28;20116;-38
2020/12/07 04:29:33;;;;;;;18.90;9.02;;;-3.90;63.80;;;;;;5076543;28;20032;-38
2020/12/07 04:31:58;;;;;;;17.10;9.20;;;-3.90;63.90;;;;;;5075136;28;20035;-41
2020/12/07 04:34:24;;;;;;;22.70;10.20;;;-3.90;63.60;;;;;;5076868;28;20038;-38
2020/12/07 04:36:54;;;;;;;19.08;9.45;;;-3.90;63.60;;;;;;5076800;28;20035;-40
2020/12/07 04:39:20;;;;;;;18.20;8.93;;;-3.90;63.60;;;;;;5076237;28;20102;-41
2020/12/07 04:41:46;;;;;;;20.00;8.68;;;-4.00;63.60;;;;;;5076839;28;20445;-41
2020/12/07 04:44:12;;;;;;;18.77;8.48;;;-3.90;63.60;;;;;;5076787;28;20020;-37
2020/12/07 04:46:38;;;;;;;19.10;8.68;;;-4.00;63.50;;;;;;5076187;28;20107;-41
2020/12/07 04:49:03;;;;;;;19.73;9.20;;;-4.00;63.50;;;;;;5076571;28;20021;-38
2020/12/07 04:51:31;;;;;;;19.42;8.85;;;-4.00;63.60;;;;;;5076990;28;20028;-39
2020/12/07 04:53:59;;;;;;;20.48;9.15;;;-4.00;63.50;;;;;;5077530;28;20024;-41
2020/12/07 04:56:31;;;;;;;21.95;9.55;;;-4.00;63.60;;;;;;5079042;28;20091;-41
2020/12/07 04:58:57;;;;;;;19.13;9.00;;;-4.00;63.70;;;;;;5074714;28;20021;-37
2020/12/07 05:01:24;;;;;;;19.92;9.57;;;-4.00;63.60;;;;;;5076544;28;20463;-41
2020/12/07 05:03:50;;;;;;;21.85;9.63;;;-4.10;63.50;;;;;;5058229;28;20323;-38
2020/12/07 05:06:19;;;;;;;18.77;7.85;;;-4.10;63.50;;;;;;5055333;28;20025;-38
2020/12/07 05:08:45;;;;;;;16.98;8.52;;;-4.10;63.40;;;;;;5054859;28;20037;-38
2020/12/07 05:11:11;;;;;;;20.77;9.98;;;-4.10;63.40;;;;;;5055239;28;20026;-38
2020/12/07 05:13:44;;;;;;;20.70;9.73;;;-4.10;63.40;;;;;;5055773;28;20025;-38
2020/12/07 05:16:11;;;;;;;24.27;9.70;;;-4.20;63.30;;;;;;5056191;28;20033;-37
2020/12/07 05:18:39;;;;;;;19.02;9.25;;;-4.20;63.40;;;;;;5055522;28;20029;-38
2020/12/07 05:21:05;;;;;;;28.30;9.85;;;-4.20;63.60;;;;;;5055283;28;20055;-37
2020/12/07 05:23:39;;;;;;;27.23;11.63;;;-4.20;63.60;;;;;;5054640;28;20315;-38
2020/12/07 05:26:09;;;;;;;24.42;9.80;;;-4.30;63.60;;;;;;5054851;28;20037;-38
2020/12/07 05:28:39;;;;;;;23.75;10.65;;;-4.30;63.60;;;;;;5054130;28;20040;-38
2020/12/07 05:31:05;;;;;;;20.45;10.57;;;-4.30;63.60;;;;;;5053043;28;20135;-38
2020/12/07 05:33:31;;;;;;;20.95;10.75;;;-4.30;63.60;;;;;;5054939;28;20518;-40
2020/12/07 05:35:58;;;;;;;25.88;10.65;;;-4.30;63.60;;;;;;5054959;28;20036;-38
2020/12/07 05:38:34;;;;;;;34.83;12.73;;;-4.40;63.70;;;;;;5054796;28;20079;-38
2020/12/07 05:41:02;;;;;;;27.75;12.70;;;-4.40;63.80;;;;;;5055122;28;20044;-38
2020/12/07 05:43:30;;;;;;;35.58;10.80;;;-4.40;63.70;;;;;;5054771;28;20013;-38
2020/12/07 05:45:59;;;;;;;19.95;10.93;;;-4.40;63.80;;;;;;5056004;28;20067;-38
2020/12/07 05:48:30;;;;;;;18.45;9.63;;;-4.40;63.90;;;;;;5055544;28;20398;-38
2020/12/07 05:51:01;;;;;;;22.40;10.27;;;-4.40;64.00;;;;;;5055797;28;20108;-38
2020/12/07 05:53:27;;;;;;;22.50;11.40;;;-4.40;64.00;;;;;;5055327;28;20032;-38
2020/12/07 05:55:54;;;;;;;23.02;11.35;;;-4.40;64.10;;;;;;5056083;28;20037;-38
2020/12/07 05:58:21;;;;;;;24.98;12.00;;;-4.40;64.00;;;;;;5055915;28;20094;-38
2020/12/07 06:00:47;;;;;;;21.60;10.63;;;-4.40;63.80;;;;;;5059216;28;20051;-38
2020/12/07 06:03:17;;;;;;;25.70;12.73;;;-4.40;64.50;;;;;;5059114;28;20095;-38
2020/12/07 06:05:45;;;;;;;21.25;10.43;;;-4.30;64.00;;;;;;5059349;28;20033;-38
2020/12/07 06:08:15;;;;;;;23.58;9.90;;;-4.30;63.90;;;;;;5058554;28;20112;-39
2020/12/07 06:10:50;;;;;;;22.10;10.45;;;-4.30;64.00;;;;;;5059429;28;20051;-38
2020/12/07 06:13:25;;;;;;;18.02;9.68;;;-4.30;64.10;;;;;;5058855;28;20029;-38
2020/12/07 06:15:52;;;;;;;23.25;11.73;;;-4.30;64.10;;;;;;5059137;28;20067;-38
2020/12/07 06:18:35;;;;;;;26.73;12.05;;;-4.20;64.20;;;;;;5058594;28;20021;-39
2020/12/07 06:21:02;;;;;;;28.17;13.63;;;-4.20;64.20;;;;;;5069227;28;20039;-41
2020/12/07 06:23:34;;;;;;;24.38;12.07;;;-4.20;64.20;;;;;;5084925;28;20027;-41
2020/12/07 06:26:01;;;;;;;20.95;11.23;;;-4.10;64.40;;;;;;5081911;28;20123;-42
2020/12/07 06:28:37;;;;;;;21.85;10.27;;;-4.10;64.30;;;;;;5097937;28;20024;-41
2020/12/07 06:31:20;;;;;;;20.42;10.30;;;-4.10;64.10;;;;;;5058331;28;20075;-42
2020/12/07 06:33:51;;;;;;;32.90;12.75;;;-4.00;64.20;;;;;;5074865;28;20299;-42
2020/12/07 06:36:30;;;;;;;48.83;18.05;;;-4.00;64.10;;;;;;5077670;28;20074;-41
2020/12/07 06:39:01;;;;;;;24.95;13.13;;;-3.90;64.20;;;;;;5077853;28;20088;-41
2020/12/07 06:41:38;;;;;;;27.88;11.23;;;-3.90;64.10;;;;;;5078907;28;20103;-42
2020/12/07 06:44:10;;;;;;;22.13;10.43;;;-3.90;64.00;;;;;;5077565;28;20109;-41
2020/12/07 06:47:06;;;;;;;20.42;10.88;;;-3.90;64.00;;;;;;5078625;28;20322;-41
2020/12/07 06:49:55;;;;;;;19.90;9.75;;;-3.80;63.80;;;;;;5077980;28;20028;-41
2020/12/07 06:52:22;;;;;;;22.75;10.52;;;-3.80;63.80;;;;;;5077058;28;20807;-42
2020/12/07 06:55:13;;;;;;;21.02;10.45;;;-3.80;64.40;;;;;;5080405;28;20032;-41
2020/12/07 06:57:46;;;;;;;;;;;-3.80;64.10;;;;;;5094686;28;20111;-41
2020/12/07 07:00:11;;;;;;;26.52;12.00;;;-3.80;64.10;;;;;;5090857;28;19951;-41
2020/12/07 07:02:42;;;;;;;28.83;12.43;;;-3.80;64.20;;;;;;5076366;28;20048;-41
2020/12/07 07:05:09;;;;;;;;;;;-3.70;64.20;;;;;;5075121;28;20050;-41
2020/12/07 07:07:35;;;;;;;27.92;13.00;;;-3.70;64.20;;;;;;5076210;28;20471;-41
2020/12/07 07:10:01;;;;;;;24.88;11.70;;;-3.60;64.30;;;;;;5069193;28;20123;-42
2020/12/07 07:12:29;;;;;;;22.42;11.55;;;-3.60;64.10;;;;;;5073239;28;20132;-40
2020/12/07 07:14:56;;;;;;;23.80;10.35;;;-3.60;64.00;;;;;;5065290;28;20032;-39
2020/12/07 07:17:25;;;;;;;20.13;9.57;;;-3.60;64.10;;;;;;5076449;28;20450;-41
2020/12/07 07:19:50;;;;;;;18.13;9.07;;;-3.40;64.10;;;;;;5076945;28;20036;-41
2020/12/07 07:22:16;;;;;;;22.73;9.00;;;-3.40;63.70;;;;;;5059354;28;20040;-41
2020/12/07 07:24:54;;;;;;;20.77;8.70;;;-3.40;63.70;;;;;;5068633;28;20043;-41
2020/12/07 07:30:06;;;;;;;24.45;10.55;;;-3.30;64.00;;;;;;5095292;28;20031;-41
2020/12/07 07:32:38;;;;;;;21.70;10.40;;;-3.20;63.50;;;;;;5096250;28;20099;-41
2020/12/07 07:35:04;;;;;;;22.38;10.32;;;-3.20;63.20;;;;;;5080284;28;20044;-41
2020/12/07 07:37:30;;;;;;;23.98;10.00;;;-3.10;63.30;;;;;;5076960;28;20020;-38
2020/12/07 07:40:02;;;;;;;26.63;11.30;;;-3.10;63.10;;;;;;5076924;28;20041;-38
2020/12/07 07:42:29;;;;;;;18.15;8.95;;;-3.00;63.10;;;;;;5077730;28;20032;-38
2020/12/07 07:44:56;;;;;;;30.58;14.80;;;-3.00;62.90;;;;;;5078053;28;20094;-38
2020/12/07 07:47:39;;;;;;;29.80;15.30;;;-3.00;62.80;;;;;;5078636;28;20095;-39
2020/12/07 07:53:32;;;;;;;28.63;13.38;;;-2.90;62.60;;;;;;5074854;28;20047;-41
2020/12/07 07:59:35;;;;;;;40.88;18.92;;;-2.80;62.30;;;;;;5031629;28;20349;-41
2020/12/07 08:17:48;;;;;;;58.35;29.60;;;-2.80;61.90;;;;;;5054881;28;20021;-40
2020/12/07 08:20:17;;;;;;;55.35;27.67;;;-2.70;62.00;;;;;;5055469;28;20508;-41
2020/12/07 08:23:00;;;;;;;41.47;22.02;;;-2.70;61.60;;;;;;5054444;28;20287;-41
2020/12/07 08:25:45;;;;;;;22.52;11.75;;;-2.70;61.50;;;;;;5067147;28;20074;-41
2020/12/07 08:28:17;;;;;;;20.58;9.63;;;-2.60;61.40;;;;;;5077964;28;20051;-41
2020/12/07 08:31:07;;;;;;;30.05;11.90;;;-2.60;61.60;;;;;;5081795;28;20024;-41
2020/12/07 08:33:35;;;;;;;24.27;11.55;;;-2.60;61.40;;;;;;5067384;28;20033;-41
2020/12/07 08:36:02;;;;;;;23.70;11.82;;;-2.60;61.30;;;;;;5073095;28;20037;-39
2020/12/07 08:38:39;;;;;;;27.17;12.18;;;-2.60;61.10;;;;;;5088071;28;20044;-41
2020/12/07 08:41:10;;;;;;;64.95;26.83;;;-2.50;61.00;;;;;;5075175;28;20436;-44
2020/12/07 08:43:42;;;;;;;103.57;40.25;;;-2.50;60.90;;;;;;5080160;28;20310;-39
2020/12/07 08:46:09;;;;;;;37.83;16.27;;;-2.50;60.80;;;;;;5083250;28;20127;-44
2020/12/07 08:48:36;;;;;;;125.90;45.67;;;-2.50;60.60;;;;;;5084638;28;20028;-38
2020/12/07 08:51:02;;;;;;;34.13;15.43;;;-2.50;60.60;;;;;;5081866;28;20417;-39
2020/12/07 08:53:28;;;;;;;40.53;18.50;;;-2.50;60.60;;;;;;5078973;28;20038;-50
2020/12/07 08:55:54;;;;;;;40.92;16.77;;;-2.50;60.80;;;;;;5076005;28;20167;-41
2020/12/07 08:58:19;;;;;;;48.92;23.00;;;-2.40;60.80;;;;;;5075761;28;20327;-41
2020/12/07 09:00:45;;;;;;;45.15;20.73;;;-2.40;60.50;;;;;;5075952;28;20495;-40
2020/12/07 09:03:11;;;;;;;91.90;42.42;;;-2.30;60.50;;;;;;5075895;28;20021;-40
2020/12/07 09:05:38;;;;;;;70.95;33.00;;;-2.30;60.50;;;;;;5076439;28;20074;-39
2020/12/07 09:08:05;;;;;;;52.65;22.88;;;-2.30;60.50;;;;;;5076010;28;20024;-39
2020/12/07 09:10:30;;;;;;;34.53;17.00;;;-2.30;60.40;;;;;;5077286;28;20119;-39
2020/12/07 09:12:56;;;;;;;22.92;12.10;;;-2.20;60.20;;;;;;5074514;28;20100;-41
2020/12/07 09:15:22;;;;;;;26.67;11.55;;;-2.20;59.90;;;;;;5075158;28;20050;-39
2020/12/07 09:17:47;;;;;;;21.85;12.90;;;-2.20;59.90;;;;;;5075882;28;20451;-41
2020/12/07 09:20:13;;;;;;;28.02;13.10;;;-2.20;59.80;;;;;;5075540;28;20314;-39
2020/12/07 09:22:39;;;;;;;25.00;14.88;;;-2.20;59.60;;;;;;5075472;28;20025;-39
2020/12/07 09:25:05;;;;;;;26.63;16.27;;;-2.10;59.80;;;;;;5076543;28;20410;-44
2020/12/07 09:27:31;;;;;;;21.67;9.68;;;-2.10;60.40;;;;;;5075536;28;20025;-45
2020/12/07 09:29:56;;;;;;;23.23;11.10;;;-2.00;60.00;;;;;;5075902;28;20119;-46
2020/12/07 09:32:22;;;;;;;18.17;9.15;;;-2.00;59.80;;;;;;5076424;28;20108;-46
2020/12/07 09:34:48;;;;;;;17.23;9.02;;;-1.90;59.70;;;;;;5080209;28;20062;-38
2020/12/07 09:37:13;;;;;;;20.80;8.57;;;-1.90;59.70;;;;;;5079332;28;20468;-39
2020/12/07 09:39:39;;;;;;;20.05;9.75;;;-1.90;59.60;;;;;;5076520;28;20044;-48
2020/12/07 09:42:05;;;;;;;20.60;11.30;;;-1.90;59.40;;;;;;5070445;28;20060;-47
2020/12/07 09:44:30;;;;;;;17.50;9.10;;;-1.80;59.50;;;;;;5063819;28;20028;-39
2020/12/07 09:46:56;;;;;;;23.45;10.02;;;-1.80;59.40;;;;;;5057999;28;20564;-40
2020/12/07 09:49:22;;;;;;;18.60;9.77;;;-1.70;59.40;;;;;;5057312;28;20031;-39
2020/12/07 09:51:48;;;;;;;28.05;10.95;;;-1.70;59.30;;;;;;5057145;28;20029;-40
2020/12/07 09:54:15;;;;;;;30.88;11.70;;;-1.60;59.30;;;;;;5056608;28;20327;-39
2020/12/07 09:56:40;;;;;;;20.13;9.43;;;-1.60;59.30;;;;;;5057333;28;20074;-40
2020/12/07 09:59:06;;;;;;;18.40;8.95;;;-1.60;59.00;;;;;;5057406;28;20025;-40
2020/12/07 10:01:32;;;;;;;16.13;9.10;;;-1.50;59.00;;;;;;5059380;28;20036;-45
2020/12/07 10:03:58;;;;;;;20.25;9.07;;;-1.40;58.70;;;;;;5058814;28;20453;-47
2020/12/07 10:06:23;;;;;;;17.95;8.40;;;-1.40;58.70;;;;;;5059544;28;20029;-46
2020/12/07 10:08:49;;;;;;;15.80;8.00;;;-1.40;58.30;;;;;;5058142;28;20110;-46
2020/12/07 10:11:15;;;;;;;16.73;9.15;;;-1.40;58.00;;;;;;5056894;28;20025;-45
2020/12/07 10:13:42;;;;;;;19.35;9.00;;;-1.50;58.00;;;;;;5057762;28;20334;-49
2020/12/07 10:16:08;;;;;;;16.70;8.15;;;-1.40;58.10;;;;;;5057970;28;20051;-45
2020/12/07 10:18:34;;;;;;;20.92;11.43;;;-1.40;58.20;;;;;;5057632;28;20442;-47
2020/12/07 10:20:59;;;;;;;22.60;10.93;;;-1.40;58.30;;;;;;5058970;28;20377;-47
2020/12/07 10:23:25;;;;;;;24.80;11.38;;;-1.40;58.60;;;;;;5074313;28;20131;-46
2020/12/07 10:25:51;;;;;;;20.02;9.70;;;-1.30;58.50;;;;;;5077939;28;20105;-48
2020/12/07 10:28:18;;;;;;;21.85;11.80;;;-1.30;58.40;;;;;;5078744;28;20041;-46
2020/12/07 10:30:43;;;;;;;23.17;9.98;;;-1.20;58.30;;;;;;5078350;28;20024;-45
2020/12/07 10:33:09;;;;;;;25.30;10.88;;;-1.20;58.20;;;;;;5085156;28;20425;-48
2020/12/07 10:35:35;;;;;;;24.50;11.13;;;-1.20;58.00;;;;;;5079010;28;20035;-44
2020/12/07 10:38:00;;;;;;;18.08;9.88;;;-1.10;57.90;;;;;;5078496;28;20040;-44
2020/12/07 10:40:27;;;;;;;20.00;10.20;;;-1.00;57.90;;;;;;5077288;28;20338;-45
2020/12/07 10:42:53;;;;;;;25.27;11.73;;;-1.10;57.40;;;;;;5077854;28;20448;-45
2020/12/07 10:45:19;;;;;;;27.08;13.35;;;-1.00;57.50;;;;;;5071673;28;20043;-44
2020/12/07 10:47:45;;;;;;;22.38;11.43;;;-1.00;57.40;;;;;;5078320;28;20016;-38
2020/12/07 10:50:10;;;;;;;24.80;13.00;;;-1.00;57.50;;;;;;5075748;28;20116;-39
2020/12/07 10:52:36;;;;;;;27.98;14.00;;;-0.90;57.50;;;;;;5077290;28;20454;-41
2020/12/07 10:55:02;;;;;;;24.65;11.13;;;-0.90;57.50;;;;;;5077396;28;20334;-39
2020/12/07 10:57:28;;;;;;;31.67;11.48;;;-0.90;57.40;;;;;;5076908;28;20418;-39
2020/12/07 10:59:53;;;;;;;25.48;10.35;;;-0.80;57.40;;;;;;5077510;28;20110;-40
2020/12/07 11:02:19;;;;;;;28.02;11.25;;;-0.70;57.50;;;;;;5077917;28;20471;-41
2020/12/07 11:04:45;;;;;;;23.40;11.27;;;-0.70;57.30;;;;;;5078305;28;20036;-38
2020/12/07 11:07:15;;;;;;;23.63;10.43;;;-0.70;57.30;;;;;;5077819;28;20032;-39
2020/12/07 11:09:40;;;;;;;56.33;23.40;;;-0.60;57.30;;;;;;5078227;28;20028;-40
2020/12/07 11:12:12;;;;;;;99.40;40.60;;;-0.60;56.90;;;;;;5078140;28;20037;-41
2020/12/07 11:14:38;;;;;;;44.70;20.60;;;-0.50;57.10;;;;;;5079610;28;20070;-39
2020/12/07 11:17:05;;;;;;;30.67;14.40;;;-0.50;57.10;;;;;;5087906;28;20369;-41
2020/12/07 11:19:31;;;;;;;26.52;13.18;;;-0.40;56.90;;;;;;5081689;28;20042;-38
2020/12/07 11:21:56;;;;;;;31.55;13.15;;;-0.40;56.80;;;;;;5088732;28;20138;-41
2020/12/07 11:24:22;;;;;;;27.02;14.18;;;-0.30;56.50;;;;;;5091089;28;20024;-39
2020/12/07 11:26:48;;;;;;;29.10;12.25;;;-0.30;56.30;;;;;;5087398;28;20103;-41
2020/12/07 11:29:14;;;;;;;22.52;10.90;;;-0.20;56.50;;;;;;5076463;28;20025;-39
2020/12/07 11:31:39;;;;;;;23.10;11.02;;;-0.20;56.50;;;;;;5077585;28;20028;-41
2020/12/07 11:34:05;;;;;;;26.27;13.20;;;-0.10;56.50;;;;;;5081261;28;20032;-39
2020/12/07 11:36:31;;;;;;;32.58;12.80;;;-0.10;56.20;;;;;;5078516;28;20319;-39
2020/12/07 11:41:54;;;;;;;49.40;14.73;;;0.00;56.10;;;;;;5080915;28;20356;-39
2020/12/07 11:44:20;;;;;;;28.85;11.48;;;0.10;55.90;;;;;;5084883;28;20123;-40
2020/12/07 11:46:53;;;;;;;30.23;12.80;;;0.10;55.80;;;;;;5068830;28;20112;-40
2020/12/07 11:49:19;;;;;;;30.58;13.85;;;0.10;55.90;;;;;;5082582;28;20736;-38
2020/12/07 11:51:44;;;;;;;23.73;11.35;;;0.20;55.30;;;;;;5076185;28;20496;-40
2020/12/07 11:54:10;;;;;;;21.85;11.98;;;0.10;55.40;;;;;;5089648;28;20035;-38
2020/12/07 11:56:38;;;;;;;27.65;13.20;;;0.20;55.30;;;;;;5074939;28;20033;-40
2020/12/07 13:39:53;;;;;;;38.95;17.52;;;-2.40;58.40;;;;;;5093574;27;20354;-39
2020/12/07 13:42:18;;;;;;;22.40;12.43;;;-1.20;60.00;;;;;;5082491;28;20028;-41
2020/12/07 13:44:45;;;;;;;25.58;11.88;;;-1.10;59.80;;;;;;5080493;28;20043;-41
2020/12/07 13:47:11;;;;;;;24.90;11.13;;;-1.10;59.60;;;;;;5086984;28;20016;-42
2020/12/07 13:49:37;;;;;;;25.98;10.70;;;-1.10;59.60;;;;;;5093136;28;20034;-42
2020/12/07 13:52:13;;;;;;;18.83;10.18;;;-1.10;59.60;;;;;;5092763;28;20341;-42
2020/12/07 13:54:42;;;;;;;18.95;10.80;;;-1.10;59.60;;;;;;5086375;28;20032;-42
2020/12/07 13:57:08;;;;;;;21.33;9.73;;;-1.20;59.80;;;;;;5092810;28;20107;-42
2020/12/07 13:59:34;;;;;;;26.13;11.05;;;-1.20;59.70;;;;;;5088323;28;20123;-42
2020/12/07 14:01:59;;;;;;;26.15;9.82;;;-1.20;59.70;;;;;;5092524;28;20080;-41
2020/12/07 14:07:06;;;;;;;22.88;10.85;;;-1.30;60.00;;;;;;5092000;28;20386;-41
2020/12/07 14:09:32;;;;;;;22.45;9.52;;;-1.30;59.90;;;;;;5092110;28;20123;-42
2020/12/07 14:12:01;;;;;;;20.40;11.02;;;-1.30;60.00;;;;;;5091951;28;20028;-41
2020/12/07 14:14:26;;;;;;;19.63;9.35;;;-1.30;60.10;;;;;;5092410;28;20322;-42
2020/12/07 14:17:06;;;;;;;19.67;8.95;;;-1.30;60.20;;;;;;5092070;28;20024;-42
2020/12/07 14:30:40;;;;;;;24.30;10.85;;;-1.40;60.40;;;;;;5090910;28;20074;-42
2020/12/07 14:41:21;;;;;;;23.42;10.70;;;-1.40;60.50;;;;;;5078300;28;20031;-42
2020/12/07 14:43:46;;;;;;;18.88;9.60;;;-1.40;60.40;;;;;;5078284;28;20353;-42
2020/12/07 14:46:21;;;;;;;25.83;12.15;;;-1.40;60.40;;;;;;5077996;28;20024;-37
2020/12/07 14:48:47;;;;;;;22.45;10.95;;;-1.40;60.60;;;;;;5077539;28;20125;-38
2020/12/07 14:54:04;;;;;;;32.65;14.55;;;-1.40;60.80;;;;;;5079148;28;20032;-39
2020/12/07 15:14:50;;;;;;;25.33;12.15;;;-1.40;61.10;;;;;;5078611;28;20017;-42
2020/12/07 15:17:16;;;;;;;35.17;15.20;;;-1.40;61.10;;;;;;5077818;28;20119;-38
2020/12/07 15:19:42;;;;;;;27.92;13.77;;;-1.40;61.10;;;;;;5077895;28;20328;-40
2020/12/07 15:22:08;;;;;;;24.88;12.43;;;-1.40;61.00;;;;;;5065252;28;20037;-40
2020/12/07 15:24:35;;;;;;;30.08;14.00;;;-1.40;61.00;;;;;;5078478;28;20465;-41
2020/12/07 15:27:01;;;;;;;21.77;12.35;;;-1.50;61.00;;;;;;5076756;28;20115;-40